Time;durP1;ratioP1;P1;durP2;ratioP2;P2;SDS_P1;SDS_P2;PMS_P1;PMS_P2;Temp;Humidity;BMP_temperature;BMP_pressure;BME280_temperature;BME280_humidity;BME280_pressure;Samples;Min_cycle;Max_cycle;Signal;HPM_P1;HPM_P2
2022/05/27 00:00:12;;;;;;;1.38;0.70;;;14.10;99.90;;;;;;4989573;28;20058;-70
2022/05/27 00:02:37;;;;;;;1.58;0.52;;;14.10;99.90;;;;;;5038464;28;20052;-69
2022/05/27 00:05:03;;;;;;;4.22;0.90;;;14.10;99.90;;;;;;5054767;28;20062;-70
2022/05/27 00:07:29;;;;;;;2.20;0.80;;;14.00;99.90;;;;;;5054967;28;20038;-70
2022/05/27 00:09:54;;;;;;;1.45;0.50;;;14.00;99.90;;;;;;5071152;28;20043;-69
2022/05/27 00:12:20;;;;;;;2.90;0.80;;;14.00;99.90;;;;;;5071570;28;20040;-69
2022/05/27 00:14:46;;;;;;;0.93;0.43;;;14.00;99.90;;;;;;5070327;28;20032;-69
2022/05/27 00:17:11;;;;;;;3.85;1.10;;;14.00;99.90;;;;;;5071025;28;20548;-70
2022/05/27 00:19:37;;;;;;;1.63;0.77;;;13.90;99.90;;;;;;5089405;28;20036;-69
2022/05/27 00:22:03;;;;;;;1.73;0.65;;;13.90;99.90;;;;;;5070802;28;20092;-70
2022/05/27 00:24:28;;;;;;;0.80;0.45;;;13.90;99.90;;;;;;5070570;28;20036;-69
2022/05/27 00:26:54;;;;;;;1.40;0.50;;;13.90;99.90;;;;;;5071018;28;20062;-69
2022/05/27 00:29:20;;;;;;;3.45;0.77;;;13.80;99.90;;;;;;5069937;28;20047;-70
2022/05/27 00:31:45;;;;;;;2.22;0.90;;;13.80;99.90;;;;;;5070804;28;20032;-69
2022/05/27 00:34:11;;;;;;;1.63;0.57;;;13.80;99.90;;;;;;5070960;28;20051;-70
2022/05/27 00:36:37;;;;;;;1.42;0.65;;;13.80;99.90;;;;;;5089531;28;20040;-69
2022/05/27 00:39:03;;;;;;;4.95;0.68;;;13.70;99.90;;;;;;5070696;28;20088;-69
2022/05/27 00:41:29;;;;;;;2.08;0.73;;;13.70;99.90;;;;;;5054319;28;20055;-69
2022/05/27 00:43:55;;;;;;;1.60;0.60;;;13.70;99.90;;;;;;5053630;28;20052;-69
2022/05/27 00:46:28;;;;;;;1.90;1.10;;;13.80;99.90;;;;;;5070392;28;20527;-70
2022/05/27 00:49:05;;;;;;;2.45;0.63;;;13.70;99.90;;;;;;5071070;28;20046;-69
2022/05/27 00:51:34;;;;;;;3.35;0.80;;;13.70;99.90;;;;;;5070894;28;20127;-70
2022/05/27 00:54:22;;;;;;;1.63;0.77;;;13.70;99.90;;;;;;5070548;28;20044;-69
2022/05/27 00:56:52;;;;;;;0.68;0.50;;;13.70;99.90;;;;;;5070554;28;20036;-69
2022/05/27 00:59:43;;;;;;;2.20;0.60;;;13.70;99.90;;;;;;5088103;28;20427;-69
2022/05/27 01:02:09;;;;;;;2.88;0.77;;;13.70;99.90;;;;;;5088945;28;20036;-69
2022/05/27 01:04:35;;;;;;;1.23;0.63;;;13.70;99.90;;;;;;5088921;28;20532;-70
2022/05/27 01:07:01;;;;;;;2.35;0.75;;;13.70;99.90;;;;;;5070580;28;20039;-69
2022/05/27 01:09:29;;;;;;;1.42;0.77;;;13.60;99.90;;;;;;5070415;28;20039;-69
2022/05/27 01:12:21;;;;;;;1.13;0.52;;;13.60;99.90;;;;;;5070596;28;20040;-69
2022/05/27 01:14:53;;;;;;;2.22;1.10;;;13.60;99.90;;;;;;5052771;28;20435;-69
2022/05/27 01:17:33;;;;;;;1.52;0.95;;;13.60;99.90;;;;;;5070271;28;20227;-69
2022/05/27 01:20:21;;;;;;;1.52;0.85;;;13.60;99.90;;;;;;5070657;28;20079;-69
2022/05/27 01:22:49;;;;;;;4.30;0.70;;;13.50;99.90;;;;;;5070314;28;20062;-69
2022/05/27 01:25:53;;;;;;;1.98;0.65;;;13.50;99.90;;;;;;5070137;28;20159;-69
2022/05/27 01:28:40;;;;;;;2.78;1.05;;;13.50;99.90;;;;;;5053429;28;20040;-69
2022/05/27 01:31:33;;;;;;;1.13;0.63;;;13.40;99.90;;;;;;5069176;28;20659;-69
2022/05/27 01:34:28;;;;;;;2.50;0.85;;;13.40;99.90;;;;;;5088238;28;20044;-69
2022/05/27 01:37:02;;;;;;;1.35;0.82;;;13.40;99.90;;;;;;5088636;28;20035;-69
2022/05/27 01:39:48;;;;;;;2.22;1.00;;;13.30;99.90;;;;;;5069938;28;20078;-69
2022/05/27 01:42:28;;;;;;;2.78;0.60;;;13.30;99.90;;;;;;5069546;28;20048;-69
2022/05/27 01:45:09;;;;;;;1.65;0.70;;;13.30;99.90;;;;;;5087157;28;20713;-69
2022/05/27 01:47:55;;;;;;;3.45;0.85;;;13.30;99.90;;;;;;5070132;28;20044;-69
2022/05/27 01:50:26;;;;;;;;;;;13.30;99.90;;;;;;5070637;28;20048;-69
2022/05/27 01:53:05;;;;;;;1.25;0.57;;;13.30;99.90;;;;;;5070481;28;20296;-69
2022/05/27 01:55:58;;;;;;;2.30;1.25;;;13.30;99.90;;;;;;5055262;28;20246;-69
2022/05/27 01:58:32;;;;;;;1.33;0.65;;;13.30;99.90;;;;;;5037085;28;20048;-69
2022/05/27 02:00:57;;;;;;;1.40;0.90;;;13.30;99.90;;;;;;5056143;28;20441;-69
2022/05/27 02:03:51;;;;;;;2.60;1.23;;;13.30;99.90;;;;;;5073933;28;20079;-70
2022/05/27 02:06:35;;;;;;;3.08;0.90;;;13.30;99.90;;;;;;5073675;28;20047;-69
2022/05/27 02:09:17;;;;;;;5.65;1.33;;;13.30;99.90;;;;;;5073635;28;20097;-69
2022/05/27 02:11:45;;;;;;;6.60;1.20;;;13.30;99.90;;;;;;5073642;28;20044;-69
2022/05/27 02:14:25;;;;;;;1.20;0.50;;;13.30;99.90;;;;;;5055853;28;20079;-69
2022/05/27 02:17:00;;;;;;;1.52;0.80;;;13.30;99.90;;;;;;5073895;28;20453;-70
2022/05/27 02:19:32;;;;;;;3.33;0.75;;;13.30;99.90;;;;;;5073828;28;20673;-69
2022/05/27 02:22:13;;;;;;;1.10;0.50;;;13.20;99.90;;;;;;5091770;28;20476;-69
2022/05/27 02:24:44;;;;;;;3.35;0.60;;;13.20;99.90;;;;;;5073496;28;20059;-69
2022/05/27 02:27:14;;;;;;;6.80;0.80;;;13.20;99.90;;;;;;5073320;28;20054;-69
2022/05/27 02:29:45;;;;;;;1.40;0.80;;;13.20;99.90;;;;;;5072538;28;20048;-69
2022/05/27 02:32:18;;;;;;;0.98;0.55;;;13.10;99.90;;;;;;5073208;28;20078;-69
2022/05/27 02:35:10;;;;;;;1.70;0.70;;;13.10;99.90;;;;;;5073522;28;20062;-69
2022/05/27 02:37:38;;;;;;;1.42;0.70;;;13.10;99.90;;;;;;5091083;28;20665;-69
2022/05/27 02:40:13;;;;;;;0.95;0.45;;;13.00;99.90;;;;;;5090793;28;20412;-69
2022/05/27 02:43:17;;;;;;;2.63;0.80;;;13.00;99.90;;;;;;5056296;28;20482;-69
2022/05/27 02:46:13;;;;;;;3.17;1.10;;;13.00;99.90;;;;;;5090348;28;20047;-69
2022/05/27 02:48:50;;;;;;;2.83;0.95;;;12.90;99.90;;;;;;5072824;28;20118;-69
2022/05/27 02:51:39;;;;;;;2.50;0.75;;;12.90;99.90;;;;;;5072358;28;20040;-69
2022/05/27 02:54:28;;;;;;;2.42;0.47;;;12.90;99.90;;;;;;5090488;28;20138;-69
2022/05/27 02:57:17;;;;;;;0.63;0.32;;;12.80;99.90;;;;;;5090674;28;20110;-69
2022/05/27 02:59:44;;;;;;;2.83;0.70;;;12.80;99.90;;;;;;5071729;28;20052;-69
2022/05/27 03:02:13;;;;;;;1.25;0.75;;;12.80;99.90;;;;;;5072636;28;20516;-69
2022/05/27 03:04:43;;;;;;;2.13;0.85;;;12.70;99.90;;;;;;5072893;28;20055;-69
2022/05/27 03:07:39;;;;;;;2.38;0.60;;;12.80;99.90;;;;;;5072034;28;20119;-69
2022/05/27 03:10:26;;;;;;;3.67;0.90;;;12.80;99.90;;;;;;5071740;28;20047;-69
2022/05/27 03:13:34;;;;;;;2.97;0.93;;;12.70;99.90;;;;;;5055735;28;20119;-70
2022/05/27 03:16:09;;;;;;;;;;;12.80;99.90;;;;;;4975706;28;20407;-70
2022/05/27 03:18:39;;;;;;;2.40;0.68;;;12.70;99.90;;;;;;5041125;28;19916;-69
2022/05/27 03:21:26;;;;;;;1.40;0.65;;;12.70;99.90;;;;;;5051949;28;20322;-69
2022/05/27 03:24:49;;;;;;;1.58;0.50;;;12.70;99.90;;;;;;5052158;28;20049;-69
2022/05/27 03:27:28;;;;;;;1.90;0.38;;;12.60;99.90;;;;;;4972324;28;20424;-69
2022/05/27 03:30:02;;;;;;;4.93;1.00;;;12.60;99.90;;;;;;4971107;28;20058;-69
2022/05/27 03:32:36;;;;;;;4.28;1.17;;;12.60;99.90;;;;;;5021155;28;20044;-69
2022/05/27 03:35:41;;;;;;;4.07;0.90;;;12.60;99.90;;;;;;5052006;28;20044;-69
2022/05/27 03:38:29;;;;;;;3.70;0.73;;;12.60;99.90;;;;;;5035032;28;20049;-69
2022/05/27 03:41:26;;;;;;;1.40;0.60;;;12.60;99.90;;;;;;5051840;28;20127;-69
2022/05/27 03:43:53;;;;;;;0.93;0.60;;;12.50;99.90;;;;;;5051610;28;20518;-69
2022/05/27 03:46:31;;;;;;;2.78;0.73;;;12.60;99.90;;;;;;5034530;28;20036;-69
2022/05/27 03:48:56;;;;;;;1.98;0.82;;;12.50;99.90;;;;;;5051643;28;20044;-70
2022/05/27 03:51:25;;;;;;;2.50;0.88;;;12.60;99.90;;;;;;5051479;28;20044;-69
2022/05/27 03:54:03;;;;;;;1.88;0.60;;;12.50;99.90;;;;;;5073491;28;20093;-69
2022/05/27 03:56:40;;;;;;;3.22;0.65;;;12.50;99.90;;;;;;5071407;28;20036;-69
2022/05/27 03:59:12;;;;;;;2.10;0.75;;;12.50;99.90;;;;;;5070536;28;20044;-69
2022/05/27 04:01:41;;;;;;;0.75;0.40;;;12.50;99.90;;;;;;5071834;28;20039;-69
2022/05/27 04:04:10;;;;;;;5.10;0.50;;;12.50;99.90;;;;;;5071612;28;20102;-69
2022/05/27 04:06:36;;;;;;;2.15;0.82;;;12.60;99.90;;;;;;5054401;28;20048;-69
2022/05/27 04:09:03;;;;;;;3.50;0.57;;;12.50;99.90;;;;;;5071357;28;20046;-69
2022/05/27 04:11:29;;;;;;;1.30;0.60;;;12.60;99.90;;;;;;5054792;28;20044;-69
2022/05/27 04:13:55;;;;;;;1.13;0.43;;;12.60;99.90;;;;;;5071135;28;20050;-69
2022/05/27 04:16:20;;;;;;;1.42;0.63;;;12.70;99.90;;;;;;5070603;28;20169;-69
2022/05/27 04:18:46;;;;;;;1.40;0.70;;;12.70;99.90;;;;;;5070198;28;20040;-69
2022/05/27 04:21:12;;;;;;;2.10;0.55;;;12.70;99.90;;;;;;5089575;28;20098;-69
2022/05/27 04:23:38;;;;;;;1.98;0.70;;;12.70;99.90;;;;;;5071309;28;20089;-69
2022/05/27 04:26:05;;;;;;;3.15;0.82;;;12.70;99.90;;;;;;5070951;28;20040;-69
2022/05/27 04:28:30;;;;;;;2.22;0.98;;;12.70;99.90;;;;;;5070798;28;20043;-69
2022/05/27 04:30:56;;;;;;;7.15;1.35;;;12.70;99.90;;;;;;5070040;28;20447;-69
2022/05/27 04:33:22;;;;;;;2.83;1.00;;;12.70;99.90;;;;;;5070598;28;20109;-69
2022/05/27 04:35:48;;;;;;;2.40;0.80;;;12.70;99.90;;;;;;5089527;28;20085;-69
2022/05/27 04:38:14;;;;;;;6.43;0.80;;;12.70;99.90;;;;;;5070935;28;20512;-69
2022/05/27 04:40:40;;;;;;;2.30;0.90;;;12.80;99.90;;;;;;5089039;28;20102;-69
2022/05/27 04:43:06;;;;;;;7.47;0.90;;;12.70;99.90;;;;;;5054517;28;20496;-69
2022/05/27 04:45:33;;;;;;;3.10;1.00;;;12.70;99.90;;;;;;5070275;28;20043;-69
2022/05/27 04:47:58;;;;;;;1.95;0.73;;;12.70;99.90;;;;;;5070667;28;20044;-69
2022/05/27 04:50:24;;;;;;;3.85;0.80;;;12.70;99.90;;;;;;5070901;28;20455;-69
2022/05/27 04:52:50;;;;;;;0.90;0.40;;;12.80;99.90;;;;;;5071536;28;20040;-69
2022/05/27 04:55:16;;;;;;;6.78;1.13;;;12.70;99.90;;;;;;5070704;28;20035;-69
2022/05/27 04:57:46;;;;;;;1.60;0.60;;;12.70;99.90;;;;;;5070906;28;20044;-69
2022/05/27 05:00:34;;;;;;;4.22;0.93;;;12.70;99.90;;;;;;5069932;28;20036;-69
2022/05/27 05:03:00;;;;;;;1.35;0.55;;;12.70;99.90;;;;;;5070599;28;20040;-69
2022/05/27 05:05:29;;;;;;;1.17;0.68;;;12.70;99.90;;;;;;5070484;28;20047;-69
2022/05/27 05:08:14;;;;;;;1.15;0.80;;;12.80;99.90;;;;;;5054197;28;20036;-69
2022/05/27 05:10:40;;;;;;;1.45;0.50;;;12.70;99.90;;;;;;5070487;28;20509;-69
2022/05/27 05:13:06;;;;;;;11.25;1.45;;;12.60;99.90;;;;;;5070516;28;20043;-69
2022/05/27 05:15:31;;;;;;;1.42;0.52;;;12.70;99.90;;;;;;5058706;28;20036;-69
2022/05/27 05:17:57;;;;;;;3.47;0.77;;;12.70;99.90;;;;;;5070522;28;20089;-69
2022/05/27 05:20:27;;;;;;;3.05;0.68;;;12.70;99.90;;;;;;5070116;28;20032;-69
2022/05/27 05:22:53;;;;;;;6.90;0.95;;;12.70;99.90;;;;;;5070608;28;20035;-69
2022/05/27 05:25:19;;;;;;;1.20;0.52;;;12.70;99.90;;;;;;5070240;28;20069;-69
2022/05/27 05:27:45;;;;;;;2.65;0.55;;;12.70;99.90;;;;;;5070238;28;20040;-69
2022/05/27 05:30:14;;;;;;;2.45;0.70;;;12.80;99.90;;;;;;5090637;28;20047;-69
2022/05/27 05:32:40;;;;;;;2.20;0.80;;;12.70;99.90;;;;;;5074292;28;20059;-69
2022/05/27 05:35:07;;;;;;;1.48;0.68;;;12.80;99.90;;;;;;5074383;28;20191;-69
2022/05/27 05:37:33;;;;;;;7.93;1.08;;;12.80;99.90;;;;;;5074290;28;20408;-69
2022/05/27 05:39:58;;;;;;;1.02;0.38;;;12.80;99.90;;;;;;5074088;28;20043;-69
2022/05/27 05:42:24;;;;;;;2.30;0.50;;;12.90;99.90;;;;;;5073880;28;20416;-69
2022/05/27 05:44:50;;;;;;;1.63;0.47;;;12.90;99.90;;;;;;5073377;28;20048;-69
2022/05/27 05:47:15;;;;;;;3.00;0.65;;;12.90;99.90;;;;;;5074014;28;20181;-69
2022/05/27 05:49:41;;;;;;;3.20;0.75;;;13.00;99.90;;;;;;5057351;28;20155;-69
2022/05/27 05:52:07;;;;;;;4.10;0.63;;;12.90;99.90;;;;;;5074160;28;20047;-69
2022/05/27 05:54:33;;;;;;;2.67;0.75;;;12.90;99.90;;;;;;5073346;28;20044;-69
2022/05/27 05:57:01;;;;;;;1.55;0.50;;;12.90;99.90;;;;;;5074257;28;20047;-69
2022/05/27 05:59:31;;;;;;;4.78;0.60;;;12.90;99.90;;;;;;5056275;28;20409;-69
2022/05/27 06:01:58;;;;;;;5.47;1.30;;;13.00;99.90;;;;;;5074177;28;20101;-69
2022/05/27 06:04:24;;;;;;;3.33;1.05;;;13.10;99.90;;;;;;5073917;28;20518;-69
2022/05/27 06:06:50;;;;;;;2.30;0.70;;;13.10;99.90;;;;;;5074069;28;20055;-69
2022/05/27 06:09:15;;;;;;;4.28;0.77;;;13.20;99.90;;;;;;5056546;28;20036;-69
2022/05/27 06:11:42;;;;;;;1.02;0.60;;;13.20;99.90;;;;;;5074088;28;20474;-69
2022/05/27 06:14:07;;;;;;;4.70;0.55;;;13.30;99.90;;;;;;5090869;28;20065;-69
2022/05/27 06:16:33;;;;;;;0.90;0.47;;;13.40;99.90;;;;;;5073856;28;20467;-69
2022/05/27 06:18:59;;;;;;;3.05;0.52;;;13.40;99.90;;;;;;5091771;28;20402;-69
2022/05/27 06:21:28;;;;;;;1.95;0.52;;;13.40;99.90;;;;;;5073477;28;20417;-69
2022/05/27 06:23:54;;;;;;;3.58;1.20;;;13.40;99.90;;;;;;5073308;28;20479;-69
2022/05/27 06:26:19;;;;;;;2.03;0.45;;;13.40;99.90;;;;;;5073639;28;20040;-69
2022/05/27 06:34:26;;;;;;;3.55;0.70;;;15.00;99.90;;;;;;5072871;28;20056;-69
2022/05/27 06:37:07;;;;;;;3.92;0.55;;;15.60;99.90;;;;;;5091713;28;20104;-69
2022/05/27 06:39:35;;;;;;;5.07;0.70;;;16.20;99.90;;;;;;5036139;28;20055;-69
2022/05/27 06:42:05;;;;;;;0.80;0.40;;;16.70;99.90;;;;;;5052364;28;20079;-69
2022/05/27 06:44:31;;;;;;;2.53;0.45;;;17.00;99.90;;;;;;5069935;28;20544;-69
2022/05/27 06:46:56;;;;;;;1.90;0.40;;;17.30;99.90;;;;;;5052856;28;20044;-69
2022/05/27 06:49:23;;;;;;;1.95;0.43;;;17.40;99.90;;;;;;5052707;28;20374;-69
2022/05/27 06:51:50;;;;;;;6.30;0.75;;;17.40;99.90;;;;;;5052922;28;20093;-69
2022/05/27 06:54:17;;;;;;;4.22;0.77;;;16.80;99.90;;;;;;5070507;28;20051;-69
2022/05/27 06:56:44;;;;;;;1.25;0.30;;;16.20;99.90;;;;;;5053124;28;20036;-69
2022/05/27 06:59:10;;;;;;;2.10;0.70;;;15.80;99.90;;;;;;5051373;28;20056;-69
2022/05/27 07:01:36;;;;;;;4.22;0.65;;;15.60;99.90;;;;;;5036037;28;20056;-69
2022/05/27 07:04:03;;;;;;;2.65;0.55;;;15.30;99.90;;;;;;5052656;28;20052;-69
2022/05/27 07:06:32;;;;;;;3.22;0.52;;;15.00;99.90;;;;;;5035905;28;20068;-69
2022/05/27 07:09:01;;;;;;;3.45;0.65;;;14.70;99.90;;;;;;5052575;28;20044;-69
2022/05/27 07:11:27;;;;;;;4.13;0.65;;;14.50;99.90;;;;;;5052211;28;20047;-68
2022/05/27 07:13:53;;;;;;;1.52;0.40;;;14.40;99.90;;;;;;5069699;28;20045;-69
2022/05/27 07:16:18;;;;;;;2.47;0.85;;;14.30;99.90;;;;;;5077065;28;20039;-69
2022/05/27 07:18:44;;;;;;;2.35;0.52;;;14.30;99.90;;;;;;5072551;28;20036;-69
2022/05/27 07:21:10;;;;;;;7.93;1.05;;;14.30;99.90;;;;;;5090612;28;20067;-69
2022/05/27 07:23:36;;;;;;;4.65;0.63;;;14.20;99.90;;;;;;5072650;28;20089;-69
2022/05/27 07:26:02;;;;;;;7.55;1.05;;;14.10;99.90;;;;;;5072124;28;20043;-69
2022/05/27 07:28:28;;;;;;;2.55;0.68;;;14.10;99.90;;;;;;5072034;28;20113;-69
2022/05/27 07:30:55;;;;;;;1.75;0.80;;;14.00;99.90;;;;;;5071242;28;20046;-69
2022/05/27 07:33:20;;;;;;;1.55;0.70;;;14.00;99.90;;;;;;5072180;28;20055;-69
2022/05/27 07:35:47;;;;;;;3.42;0.68;;;13.90;99.90;;;;;;5072761;28;20040;-69
2022/05/27 07:38:13;;;;;;;4.13;0.70;;;14.00;99.90;;;;;;5072199;28;20130;-69
2022/05/27 07:40:40;;;;;;;2.17;0.50;;;13.90;99.90;;;;;;5055254;28;20127;-69
2022/05/27 07:43:09;;;;;;;2.40;0.60;;;13.90;99.90;;;;;;5071872;28;20036;-69
2022/05/27 07:45:40;;;;;;;6.82;0.68;;;13.90;99.90;;;;;;5071534;28;20465;-69
2022/05/27 07:48:06;;;;;;;1.88;0.43;;;14.00;99.90;;;;;;5071851;28;20573;-69
2022/05/27 07:50:33;;;;;;;1.65;0.50;;;14.00;99.00;;;;;;5090081;28;20074;-69
2022/05/27 07:52:58;;;;;;;2.90;0.98;;;14.10;99.80;;;;;;5071043;28;20072;-69
2022/05/27 07:55:24;;;;;;;3.45;0.77;;;14.10;99.90;;;;;;5054281;28;20504;-69
2022/05/27 07:57:50;;;;;;;2.88;0.80;;;14.10;99.90;;;;;;5071495;28;20040;-69
2022/05/27 08:00:18;;;;;;;3.72;0.68;;;14.10;99.90;;;;;;5070412;28;20030;-69
2022/05/27 08:02:44;;;;;;;2.10;1.27;;;14.00;99.90;;;;;;5071820;28;20139;-69
2022/05/27 08:05:14;;;;;;;2.85;0.50;;;14.00;98.30;;;;;;5071620;28;20039;-69
2022/05/27 08:07:39;;;;;;;2.85;0.60;;;14.00;99.80;;;;;;5071363;28;20059;-69
2022/05/27 08:10:06;;;;;;;2.53;0.77;;;14.00;98.30;;;;;;5070781;28;20176;-69
2022/05/27 08:12:33;;;;;;;4.78;0.55;;;14.00;97.60;;;;;;5071167;28;20480;-69
2022/05/27 08:14:58;;;;;;;4.32;0.60;;;14.10;99.90;;;;;;5053942;28;20132;-69
2022/05/27 08:17:24;;;;;;;1.88;0.70;;;14.20;99.90;;;;;;5071081;28;20123;-69
2022/05/27 08:19:51;;;;;;;4.43;1.20;;;14.30;99.90;;;;;;5071523;28;20078;-69
2022/05/27 08:22:17;;;;;;;3.28;0.88;;;14.40;99.90;;;;;;5070941;28;20040;-68
2022/05/27 08:24:42;;;;;;;2.78;0.60;;;14.40;99.60;;;;;;5070843;28;20123;-68
2022/05/27 08:27:08;;;;;;;2.50;0.43;;;14.30;97.60;;;;;;5071114;28;20381;-68
2022/05/27 08:29:34;;;;;;;3.67;0.98;;;14.30;99.10;;;;;;5053648;28;20048;-68
2022/05/27 08:32:03;;;;;;;1.80;0.75;;;14.30;99.90;;;;;;5071177;28;20036;-69
2022/05/27 08:40:01;;;;;;;2.35;0.50;;;14.30;98.10;;;;;;5070752;28;20486;-68
2022/05/27 08:42:39;;;;;;;7.55;0.90;;;14.40;98.50;;;;;;5071231;28;20187;-68
2022/05/27 08:45:18;;;;;;;2.35;0.57;;;14.50;92.00;;;;;;5070249;28;20123;-68
2022/05/27 08:47:54;;;;;;;7.57;0.68;;;14.30;94.00;;;;;;5071039;28;20054;-68
2022/05/27 08:50:26;;;;;;;1.25;0.30;;;14.20;95.50;;;;;;5070546;28;20040;-69
2022/05/27 08:53:05;;;;;;;3.03;0.60;;;14.20;98.20;;;;;;5089267;28;20112;-69
2022/05/27 09:01:13;;;;;;;2.55;0.60;;;14.40;96.80;;;;;;5070013;28;20501;-68
2022/05/27 09:04:07;;;;;;;3.97;0.75;;;14.50;97.50;;;;;;5070547;28;20066;-68
2022/05/27 09:06:45;;;;;;;3.53;0.57;;;14.60;97.20;;;;;;5070296;28;20150;-68
2022/05/27 09:09:23;;;;;;;2.53;0.50;;;14.60;92.50;;;;;;5070744;28;20375;-68
2022/05/27 09:12:26;;;;;;;4.13;0.47;;;14.50;86.50;;;;;;5070548;28;20051;-68
2022/05/27 09:15:03;;;;;;;1.40;0.50;;;14.40;92.30;;;;;;5063212;28;20044;-68
2022/05/27 09:17:42;;;;;;;2.22;0.52;;;14.40;94.40;;;;;;5087235;28;20084;-68
2022/05/27 09:20:15;;;;;;;1.70;0.65;;;14.40;92.70;;;;;;5070311;28;20085;-68
2022/05/27 09:23:06;;;;;;;4.78;0.77;;;14.50;96.10;;;;;;5053972;28;20070;-68
2022/05/27 09:26:04;;;;;;;1.67;0.40;;;14.60;94.10;;;;;;5070252;28;20081;-68
2022/05/27 09:28:57;;;;;;;0.55;0.30;;;14.50;92.70;;;;;;5032889;28;20099;-68
2022/05/27 09:31:34;;;;;;;1.60;0.30;;;14.60;93.30;;;;;;5052816;28;20432;-68
2022/05/27 09:34:00;;;;;;;0.80;0.38;;;14.60;92.80;;;;;;5088277;28;20052;-68
2022/05/27 09:36:35;;;;;;;0.50;0.30;;;14.60;96.20;;;;;;5070121;28;20562;-68
2022/05/27 09:39:05;;;;;;;0.95;0.32;;;14.60;95.60;;;;;;5088349;28;20505;-68
2022/05/27 09:41:50;;;;;;;3.47;0.63;;;14.70;95.60;;;;;;5069910;28;20121;-69
2022/05/27 09:44:35;;;;;;;0.23;0.13;;;14.70;92.20;;;;;;5069521;28;20070;-69
2022/05/27 09:47:03;;;;;;;0.52;0.30;;;14.70;92.50;;;;;;5070603;28;20439;-68
2022/05/27 09:49:28;;;;;;;2.30;0.28;;;14.80;92.80;;;;;;5069996;28;20129;-69
2022/05/27 09:51:54;;;;;;;0.77;0.30;;;14.90;96.30;;;;;;5070025;28;20127;-68
2022/05/27 09:54:34;;;;;;;1.33;0.30;;;14.90;94.40;;;;;;5069618;28;20036;-69
2022/05/27 09:57:13;;;;;;;0.30;0.20;;;14.90;94.10;;;;;;5088390;28;20044;-68
2022/05/27 09:59:45;;;;;;;0.57;0.30;;;14.80;87.70;;;;;;5068907;28;20097;-68
2022/05/27 10:02:26;;;;;;;3.55;0.50;;;14.70;92.80;;;;;;5070228;28;20139;-68
2022/05/27 10:05:00;;;;;;;3.40;0.52;;;14.60;92.00;;;;;;5053108;28;20055;-68
2022/05/27 10:07:39;;;;;;;2.72;0.82;;;14.60;94.10;;;;;;5069730;28;20447;-68
2022/05/27 10:10:28;;;;;;;2.53;0.57;;;14.70;94.00;;;;;;5069575;28;20044;-68
2022/05/27 10:12:58;;;;;;;2.70;0.88;;;14.70;84.10;;;;;;5069792;28;20048;-68
2022/05/27 10:15:26;;;;;;;1.33;0.60;;;14.60;93.70;;;;;;5068990;28;20492;-68
2022/05/27 10:17:52;;;;;;;0.45;0.20;;;14.50;91.60;;;;;;5073773;28;20047;-68
2022/05/27 10:20:18;;;;;;;1.58;0.40;;;14.50;93.90;;;;;;5074022;28;20352;-68
2022/05/27 10:22:57;;;;;;;1.30;0.70;;;14.50;94.00;;;;;;5057123;28;20043;-68
2022/05/27 10:25:33;;;;;;;1.45;0.50;;;14.50;89.20;;;;;;5073444;28;20039;-68
2022/05/27 10:27:58;;;;;;;0.90;0.40;;;14.60;80.40;;;;;;5092078;28;20037;-68
2022/05/27 10:30:26;;;;;;;1.27;0.25;;;14.50;90.20;;;;;;5055444;28;20042;-68
2022/05/27 10:32:52;;;;;;;2.25;0.45;;;14.60;93.10;;;;;;5091587;28;20048;-68
2022/05/27 10:35:20;;;;;;;2.08;0.60;;;14.70;93.30;;;;;;5073540;28;20507;-68
2022/05/27 10:37:52;;;;;;;3.50;0.75;;;14.70;92.40;;;;;;5073302;28;20040;-69
2022/05/27 10:40:29;;;;;;;2.78;0.47;;;14.70;88.90;;;;;;5073023;28;20040;-68
2022/05/27 10:43:24;;;;;;;1.45;0.40;;;14.80;91.60;;;;;;5073437;28;20508;-68
2022/05/27 10:45:53;;;;;;;1.42;0.30;;;14.70;80.30;;;;;;5072326;28;20555;-68
2022/05/27 10:48:43;;;;;;;9.05;1.10;;;14.60;83.90;;;;;;5073180;28;20119;-68
2022/05/27 10:51:30;;;;;;;2.60;0.50;;;14.60;81.70;;;;;;5072776;28;20075;-68
2022/05/27 10:54:02;;;;;;;0.30;0.20;;;14.60;85.50;;;;;;5072948;28;20080;-68
2022/05/27 10:56:36;;;;;;;3.90;0.57;;;14.70;86.70;;;;;;5072544;28;20036;-68
2022/05/27 11:02:25;;;;;;;2.70;0.70;;;14.90;91.90;;;;;;5072638;28;20079;-69
2022/05/27 11:05:19;;;;;;;1.25;0.40;;;15.10;83.20;;;;;;5072823;28;20599;-68
2022/05/27 11:07:53;;;;;;;2.95;0.50;;;15.10;87.90;;;;;;5073223;28;20119;-68
2022/05/27 11:10:50;;;;;;;1.50;0.52;;;15.20;91.50;;;;;;5072298;28;20079;-68
2022/05/27 11:16:56;;;;;;;4.15;0.40;;;15.10;91.80;;;;;;5078608;28;20056;-68
2022/05/27 11:19:39;;;;;;;0.30;0.20;;;15.00;77.00;;;;;;5072333;28;20055;-68
2022/05/27 11:22:15;;;;;;;1.25;0.35;;;15.00;90.60;;;;;;5072190;28;20058;-68
2022/05/27 11:25:05;;;;;;;2.00;0.35;;;15.10;88.40;;;;;;5072323;28;20470;-68
2022/05/27 11:27:49;;;;;;;5.40;0.52;;;15.20;77.50;;;;;;5072207;28;20044;-68
2022/05/27 11:30:27;;;;;;;4.88;0.60;;;15.20;81.20;;;;;;5071490;28;20043;-68
2022/05/27 11:33:18;;;;;;;2.90;0.40;;;15.10;85.80;;;;;;5090246;28;20087;-68
2022/05/27 11:36:10;;;;;;;2.17;0.43;;;15.10;87.80;;;;;;5072483;28;20576;-69
2022/05/27 11:38:54;;;;;;;1.23;0.30;;;15.20;92.10;;;;;;5055283;28;20036;-69
2022/05/27 11:41:43;;;;;;;6.70;0.40;;;15.40;87.00;;;;;;5071958;28;20050;-69
2022/05/27 11:44:25;;;;;;;1.77;0.30;;;15.30;87.10;;;;;;5071515;28;20109;-69
2022/05/27 11:46:57;;;;;;;5.05;0.77;;;15.30;88.40;;;;;;5090544;28;20044;-68
2022/05/27 11:49:57;;;;;;;3.38;0.45;;;15.20;91.30;;;;;;5071830;28;20047;-69
2022/05/27 11:52:39;;;;;;;1.85;0.50;;;15.00;78.20;;;;;;5071922;28;20044;-69
2022/05/27 11:55:23;;;;;;;3.20;0.38;;;14.90;82.10;;;;;;5071140;28;20501;-69
2022/05/27 11:58:06;;;;;;;0.47;0.38;;;15.00;80.20;;;;;;5071896;28;20489;-69
2022/05/27 12:00:38;;;;;;;1.33;0.40;;;15.00;81.60;;;;;;5070439;28;20558;-69
2022/05/27 12:03:13;;;;;;;4.72;0.75;;;15.10;90.10;;;;;;5071490;28;20044;-69
2022/05/27 12:05:54;;;;;;;3.03;0.57;;;15.00;88.50;;;;;;5071249;28;20563;-69
2022/05/27 12:08:41;;;;;;;2.10;0.30;;;15.00;90.90;;;;;;5054816;28;20560;-69
2022/05/27 12:11:21;;;;;;;2.88;0.35;;;14.90;89.30;;;;;;5071140;28;20036;-69
2022/05/27 12:14:01;;;;;;;0.50;0.28;;;14.90;88.70;;;;;;5070795;28;20067;-69
2022/05/27 12:16:31;;;;;;;2.25;0.47;;;15.00;87.00;;;;;;5070906;28;20038;-69
2022/05/27 12:19:03;;;;;;;2.70;0.60;;;15.00;90.40;;;;;;5071466;28;20044;-68
2022/05/27 12:21:43;;;;;;;0.93;0.43;;;15.10;91.20;;;;;;5089298;28;20044;-68
2022/05/27 12:24:12;;;;;;;3.80;0.60;;;15.20;85.10;;;;;;5070690;28;20054;-68
2022/05/27 12:26:39;;;;;;;3.67;0.45;;;15.30;90.30;;;;;;5089184;28;20054;-69
2022/05/27 12:29:09;;;;;;;3.35;0.57;;;15.30;90.80;;;;;;5070544;28;20040;-68
2022/05/27 12:31:36;;;;;;;0.90;0.20;;;15.20;86.90;;;;;;5070807;28;20096;-68
2022/05/27 12:34:41;;;;;;;2.72;0.40;;;15.20;90.40;;;;;;5088972;28;20040;-69
2022/05/27 12:37:13;;;;;;;1.13;0.40;;;15.20;82.10;;;;;;4990090;28;20060;-68
2022/05/27 12:39:40;;;;;;;2.90;0.50;;;15.30;91.00;;;;;;4989807;28;20046;-69
2022/05/27 12:42:09;;;;;;;2.78;0.57;;;15.40;88.90;;;;;;5042203;28;20131;-69
2022/05/27 12:44:35;;;;;;;1.73;0.50;;;15.40;90.10;;;;;;5069977;28;20540;-69
2022/05/27 12:47:02;;;;;;;3.00;0.57;;;15.40;90.60;;;;;;5071095;28;20119;-69
2022/05/27 12:49:39;;;;;;;3.08;0.57;;;15.30;86.50;;;;;;5071007;28;20051;-68
2022/05/27 12:52:27;;;;;;;2.40;0.52;;;15.30;89.00;;;;;;5070971;28;20131;-68
2022/05/27 12:54:53;;;;;;;2.72;0.43;;;15.30;84.30;;;;;;5070975;28;20079;-69
2022/05/27 13:03:48;;;;;;;;;;;15.10;82.30;;;;;;5071190;28;20040;-68
2022/05/27 13:06:25;;;;;;;1.27;0.50;;;14.90;77.20;;;;;;5027738;28;19916;-68
2022/05/27 13:08:50;;;;;;;2.53;0.60;;;14.80;89.00;;;;;;5088764;28;20524;-69
2022/05/27 13:11:22;;;;;;;2.28;0.63;;;14.80;90.80;;;;;;5070252;28;20072;-69
2022/05/27 13:13:50;;;;;;;3.80;0.68;;;14.80;89.70;;;;;;5053661;28;20074;-68
2022/05/27 13:16:47;;;;;;;1.73;0.30;;;14.80;90.60;;;;;;5069708;28;20043;-69
2022/05/27 13:19:22;;;;;;;1.90;0.45;;;14.80;89.00;;;;;;5070567;28;20044;-68
2022/05/27 13:21:54;;;;;;;1.10;0.40;;;14.80;88.30;;;;;;5070767;28;20138;-68
2022/05/27 13:24:19;;;;;;;5.22;0.82;;;14.80;90.80;;;;;;5070017;28;20052;-69
2022/05/27 13:26:56;;;;;;;2.45;0.45;;;14.80;91.10;;;;;;5053856;28;20401;-69
2022/05/27 13:29:38;;;;;;;3.05;0.52;;;14.70;90.60;;;;;;5069256;28;20044;-69
2022/05/27 13:32:09;;;;;;;2.30;0.57;;;14.60;86.60;;;;;;5053371;28;20640;-68
2022/05/27 13:34:57;;;;;;;3.65;0.50;;;14.50;90.80;;;;;;5088303;28;20056;-68
2022/05/27 13:37:54;;;;;;;1.00;0.38;;;14.50;91.40;;;;;;5053364;28;20127;-68
2022/05/27 13:40:33;;;;;;;2.92;0.52;;;14.50;90.60;;;;;;5062428;28;20089;-68
2022/05/27 13:43:09;;;;;;;0.70;0.40;;;14.50;90.20;;;;;;5070414;28;20042;-68
2022/05/27 13:45:55;;;;;;;2.88;0.55;;;14.50;90.30;;;;;;5052235;28;20036;-68
2022/05/27 13:48:36;;;;;;;1.55;0.40;;;14.50;87.30;;;;;;5053773;28;20054;-68
2022/05/27 13:51:14;;;;;;;4.88;0.80;;;14.40;86.90;;;;;;5089598;28;20044;-68